Time;durP1;ratioP1;P1;durP2;ratioP2;P2;SDS_P1;SDS_P2;PMS_P1;PMS_P2;Temp;Humidity;BMP_temperature;BMP_pressure;BME280_temperature;BME280_humidity;BME280_pressure;Samples;Min_cycle;Max_cycle;Signal;HPM_P1;HPM_P2
2021/08/09 00:01:55;;;;;;;4.18;1.27;;;;;;;13.71;100.00;97917.16;5036601;28;20092;-82
2021/08/09 00:04:22;;;;;;;2.95;1.10;;;;;;;13.76;100.00;97929.78;5049201;28;20595;-82
2021/08/09 00:06:48;;;;;;;3.47;1.25;;;;;;;13.68;100.00;97930.59;5038608;28;20049;-83
2021/08/09 00:09:15;;;;;;;3.58;1.10;;;;;;;13.56;100.00;97928.59;5049993;28;20053;-82
2021/08/09 00:11:44;;;;;;;3.63;1.30;;;;;;;13.46;100.00;97934.41;5057274;28;20041;-83
2021/08/09 00:14:10;;;;;;;2.85;1.20;;;;;;;13.38;100.00;97924.34;5055176;28;20045;-83
2021/08/09 00:16:37;;;;;;;5.47;1.10;;;;;;;13.26;100.00;97926.16;5038569;28;20052;-83
2021/08/09 00:19:03;;;;;;;3.00;1.30;;;;;;;13.14;100.00;97934.97;5055518;28;20052;-84
2021/08/09 00:21:30;;;;;;;4.57;1.20;;;;;;;13.01;100.00;97931.28;5053260;28;20033;-82
2021/08/09 00:24:01;;;;;;;4.38;1.17;;;;;;;12.96;100.00;97926.03;5054654;28;20143;-81
2021/08/09 00:26:34;;;;;;;4.78;1.20;;;;;;;12.98;100.00;97933.88;5056269;28;20641;-82
2021/08/09 00:29:03;;;;;;;6.35;1.67;;;;;;;13.01;100.00;97930.50;5071991;28;20088;-81
2021/08/09 00:31:31;;;;;;;4.72;1.23;;;;;;;13.02;100.00;97923.94;5056461;28;20530;-82
2021/08/09 00:34:00;;;;;;;3.25;1.10;;;;;;;13.06;100.00;97930.31;5054272;28;20140;-82
2021/08/09 00:36:28;;;;;;;4.88;1.20;;;;;;;13.07;100.00;97929.25;5056530;28;20465;-84
2021/08/09 00:38:55;;;;;;;5.90;1.30;;;;;;;13.12;100.00;97937.22;5057770;28;20051;-82
2021/08/09 00:41:22;;;;;;;4.88;1.50;;;;;;;13.16;100.00;97932.75;5057661;28;20045;-83
2021/08/09 00:43:48;;;;;;;4.53;1.17;;;;;;;13.23;100.00;97941.19;5057078;28;20110;-83
2021/08/09 00:46:15;;;;;;;4.47;1.10;;;;;;;13.19;100.00;97940.22;5056413;28;20434;-80
2021/08/09 00:48:43;;;;;;;2.22;1.10;;;;;;;13.24;100.00;97953.66;5056438;28;20414;-84
2021/08/09 00:51:12;;;;;;;2.97;1.13;;;;;;;13.22;100.00;97941.50;5057350;28;20041;-83
2021/08/09 00:53:39;;;;;;;5.75;1.30;;;;;;;13.23;100.00;97949.34;5057257;28;20449;-83
2021/08/09 00:56:06;;;;;;;3.80;1.10;;;;;;;13.14;100.00;97961.38;5058709;28;20449;-81
2021/08/09 00:58:33;;;;;;;3.28;1.10;;;;;;;13.06;100.00;97960.22;5060934;28;20049;-85
2021/08/09 01:01:00;;;;;;;6.88;1.35;;;;;;;13.05;100.00;97955.91;5059307;28;20053;-83
2021/08/09 01:03:28;;;;;;;5.55;1.20;;;;;;;12.98;100.00;97945.53;5041688;28;20041;-81
2021/08/09 01:05:55;;;;;;;3.83;1.25;;;;;;;13.01;100.00;97965.81;5056343;28;20465;-82
2021/08/09 01:08:49;;;;;;;3.90;1.15;;;;;;;13.09;100.00;97960.41;5056755;28;20048;-81
2021/08/09 01:11:28;;;;;;;3.70;1.20;;;;;;;13.14;100.00;97956.72;5055733;28;20048;-83
2021/08/09 01:14:17;;;;;;;3.63;0.95;;;;;;;13.10;100.00;97964.75;5055257;28;20434;-81
2021/08/09 01:16:45;;;;;;;3.22;1.15;;;;;;;13.08;100.00;97960.75;5056053;28;20060;-80
2021/08/09 01:19:36;;;;;;;3.60;1.50;;;;;;;13.04;100.00;97962.47;5057434;28;20098;-81
2021/08/09 01:22:10;;;;;;;2.90;1.20;;;;;;;12.98;100.00;97969.22;5056499;28;20041;-82
2021/08/09 01:24:52;;;;;;;3.70;1.20;;;;;;;13.00;100.00;97958.81;5057715;28;20053;-83
2021/08/09 01:27:24;;;;;;;3.55;1.10;;;;;;;12.92;100.00;97954.97;5057111;28;20052;-83
2021/08/09 01:29:51;;;;;;;5.30;1.23;;;;;;;12.85;100.00;97959.31;5058837;28;20048;-83
2021/08/09 01:32:20;;;;;;;5.50;1.35;;;;;;;12.81;100.00;97971.94;5075425;28;20029;-85
2021/08/09 01:34:49;;;;;;;5.18;1.30;;;;;;;12.84;100.00;97968.56;5076637;28;20041;-85
2021/08/09 01:37:19;;;;;;;2.35;1.25;;;;;;;12.78;100.00;97965.22;5078247;28;20025;-84
2021/08/09 01:39:46;;;;;;;2.97;1.30;;;;;;;12.75;100.00;97962.34;5076560;28;20043;-79
2021/08/09 01:42:17;;;;;;;2.67;1.20;;;;;;;12.74;100.00;97966.19;5074103;28;20049;-81
2021/08/09 01:44:44;;;;;;;2.95;1.25;;;;;;;12.72;100.00;97963.00;5066037;28;20052;-82
2021/08/09 01:47:11;;;;;;;5.00;1.10;;;;;;;12.74;100.00;97961.56;5070527;28;20104;-79
2021/08/09 01:49:39;;;;;;;4.63;1.38;;;;;;;12.74;100.00;97963.47;5058357;28;20562;-81
2021/08/09 01:52:07;;;;;;;4.95;1.13;;;;;;;12.72;100.00;97980.09;5055461;28;20037;-81
2021/08/09 01:54:34;;;;;;;2.17;1.00;;;;;;;12.67;100.00;97968.59;5058505;28;20049;-82
2021/08/09 01:57:01;;;;;;;4.75;1.38;;;;;;;12.61;100.00;97967.94;5058955;28;20084;-82
2021/08/09 01:59:27;;;;;;;2.42;1.15;;;;;;;12.59;100.00;97969.38;5053410;28;20065;-82
2021/08/09 02:01:54;;;;;;;3.30;1.27;;;;;;;12.54;100.00;97978.50;5054589;28;20033;-81
2021/08/09 02:04:21;;;;;;;6.13;1.60;;;;;;;12.58;100.00;97974.00;5054768;28;20486;-82
2021/08/09 02:06:47;;;;;;;2.35;1.02;;;;;;;12.59;100.00;97977.53;5054204;28;20037;-82
2021/08/09 02:09:14;;;;;;;2.95;1.33;;;;;;;12.56;100.00;97975.44;5056145;28;20053;-82
2021/08/09 02:11:55;;;;;;;3.47;1.35;;;;;;;12.63;100.00;97981.19;5055752;28;20391;-83
2021/08/09 02:14:26;;;;;;;4.75;1.17;;;;;;;12.50;100.00;97962.03;5055176;28;20041;-83
2021/08/09 02:17:13;;;;;;;5.47;1.40;;;;;;;12.52;100.00;97979.94;5053840;28;20123;-81
2021/08/09 02:19:51;;;;;;;3.33;1.40;;;;;;;12.45;100.00;97964.91;5054217;28;20048;-81
2021/08/09 02:22:29;;;;;;;3.80;1.48;;;;;;;12.36;100.00;97966.03;5053331;28;20045;-82
2021/08/09 02:25:05;;;;;;;3.58;1.25;;;;;;;12.33;100.00;97977.50;5053346;28;20110;-83
2021/08/09 02:27:55;;;;;;;6.45;1.48;;;;;;;12.37;100.00;97975.75;5053936;28;20045;-82
2021/08/09 02:30:25;;;;;;;4.53;1.52;;;;;;;12.39;100.00;97981.66;5053372;28;20041;-82
2021/08/09 02:32:57;;;;;;;6.43;1.60;;;;;;;12.40;100.00;97975.91;5068899;28;20047;-82
2021/08/09 02:35:26;;;;;;;6.25;1.40;;;;;;;12.46;100.00;97979.28;5052170;28;20052;-82
2021/08/09 02:37:54;;;;;;;4.05;1.35;;;;;;;12.43;100.00;97979.91;5054366;28;20487;-81
2021/08/09 02:40:21;;;;;;;3.13;1.40;;;;;;;12.44;100.00;97982.31;5053963;28;20417;-82
2021/08/09 02:42:48;;;;;;;3.85;1.70;;;;;;;12.43;100.00;97986.16;5069083;28;20044;-82
2021/08/09 02:45:16;;;;;;;3.70;1.50;;;;;;;12.43;100.00;97978.00;5058278;28;20505;-83
2021/08/09 02:47:43;;;;;;;6.28;1.38;;;;;;;12.46;100.00;97995.56;5064894;28;20041;-84
2021/08/09 02:50:12;;;;;;;2.65;1.38;;;;;;;12.44;100.00;97997.78;5057858;28;20045;-83
2021/08/09 02:52:40;;;;;;;4.40;1.27;;;;;;;12.40;100.00;97988.69;5053161;28;20064;-80
2021/08/09 02:55:09;;;;;;;3.13;1.48;;;;;;;12.33;100.00;97985.66;5054565;28;20119;-82
2021/08/09 02:57:38;;;;;;;4.88;1.55;;;;;;;12.34;100.00;97987.22;5053999;28;20049;-82
2021/08/09 03:00:05;;;;;;;3.45;1.60;;;;;;;12.31;100.00;97975.09;5054083;28;20645;-82
2021/08/09 03:02:36;;;;;;;4.40;1.48;;;;;;;12.24;100.00;97980.22;5053323;28;20056;-82
2021/08/09 03:05:06;;;;;;;4.30;1.55;;;;;;;12.21;100.00;97983.53;5055206;28;20045;-82
2021/08/09 03:07:37;;;;;;;7.80;1.50;;;;;;;12.21;100.00;97994.41;5054507;28;20045;-83
2021/08/09 03:10:09;;;;;;;6.00;1.75;;;;;;;12.23;100.00;97986.72;5054988;28;20044;-82
2021/08/09 03:12:36;;;;;;;3.15;1.33;;;;;;;12.22;100.00;97990.59;5055292;28;20075;-82
2021/08/09 03:15:04;;;;;;;6.20;1.58;;;;;;;12.24;100.00;97985.63;5056878;28;20051;-82
2021/08/09 03:17:31;;;;;;;5.00;1.67;;;;;;;12.23;100.00;97989.44;5059348;28;20490;-83
2021/08/09 03:19:58;;;;;;;4.03;1.73;;;;;;;12.19;100.00;97993.94;5056752;28;20049;-82
2021/08/09 03:22:24;;;;;;;8.88;1.75;;;;;;;12.13;100.00;97989.75;5057919;28;20048;-82
2021/08/09 03:24:51;;;;;;;4.78;1.58;;;;;;;12.07;100.00;97991.03;5058128;28;20556;-83
2021/08/09 03:27:17;;;;;;;4.93;1.70;;;;;;;12.06;100.00;97984.00;5072843;28;20045;-81
2021/08/09 03:29:47;;;;;;;4.03;1.60;;;;;;;12.05;100.00;97992.47;5048964;28;20053;-83
2021/08/09 03:32:15;;;;;;;4.00;1.63;;;;;;;11.99;100.00;97999.13;5053158;28;20044;-82
2021/08/09 03:34:42;;;;;;;5.35;2.00;;;;;;;11.94;100.00;97991.16;5061431;28;20052;-82
2021/08/09 03:37:08;;;;;;;6.55;1.83;;;;;;;11.99;100.00;97991.81;5069915;28;20041;-81
2021/08/09 03:39:35;;;;;;;5.63;1.70;;;;;;;12.12;100.00;97993.59;5068339;28;20051;-81
2021/08/09 03:42:02;;;;;;;5.05;1.90;;;;;;;12.24;100.00;97993.78;5062694;28;20079;-81
2021/08/09 03:44:29;;;;;;;3.08;1.40;;;;;;;12.38;100.00;97990.94;5055923;28;20049;-81
2021/08/09 03:46:55;;;;;;;3.53;1.60;;;;;;;12.37;100.00;97989.31;5073161;28;20055;-82
2021/08/09 03:49:22;;;;;;;4.70;1.63;;;;;;;12.47;100.00;98002.59;5059390;28;20079;-79
2021/08/09 03:51:49;;;;;;;5.82;1.70;;;;;;;12.43;100.00;97994.31;5043824;28;20037;-80
2021/08/09 03:54:15;;;;;;;3.67;1.73;;;;;;;12.48;100.00;97988.72;5056613;28;20049;-82
2021/08/09 03:56:42;;;;;;;6.68;1.90;;;;;;;12.49;100.00;97986.81;5073233;28;20045;-82
2021/08/09 03:59:08;;;;;;;6.20;1.75;;;;;;;12.54;100.00;97992.06;5039588;28;20046;-81
2021/08/09 04:01:39;;;;;;;4.75;1.92;;;;;;;12.59;100.00;97993.81;5042735;28;20052;-78
2021/08/09 04:04:08;;;;;;;6.22;1.70;;;;;;;12.63;100.00;97998.28;5042161;28;20045;-81
2021/08/09 04:06:35;;;;;;;2.67;1.50;;;;;;;12.70;100.00;97995.91;5037168;28;20052;-84
2021/08/09 04:09:02;;;;;;;3.13;1.38;;;;;;;12.74;100.00;97996.88;5040809;28;20041;-80
2021/08/09 04:11:29;;;;;;;5.13;1.60;;;;;;;12.80;100.00;97990.13;5028509;28;20056;-78
2021/08/09 04:13:57;;;;;;;2.88;1.55;;;;;;;12.76;100.00;97985.66;5057106;28;20056;-82
2021/08/09 04:16:25;;;;;;;4.40;1.65;;;;;;;12.81;100.00;97993.66;5057181;28;20072;-80
2021/08/09 04:18:52;;;;;;;5.07;1.73;;;;;;;12.82;100.00;97993.34;5061606;28;20052;-81
2021/08/09 04:21:19;;;;;;;5.55;1.58;;;;;;;12.86;100.00;97983.44;5058590;28;20052;-78
2021/08/09 04:23:46;;;;;;;4.72;2.20;;;;;;;12.89;100.00;98001.00;5055291;28;20044;-78
2021/08/09 04:26:15;;;;;;;9.38;2.67;;;;;;;12.93;100.00;97997.31;5054422;28;20056;-78
2021/08/09 04:28:43;;;;;;;7.40;2.28;;;;;;;13.00;100.00;97996.84;5054307;28;20037;-79
2021/08/09 04:31:09;;;;;;;5.20;1.67;;;;;;;13.07;100.00;97999.91;5053442;28;20048;-79
2021/08/09 04:33:44;;;;;;;5.22;1.88;;;;;;;13.06;100.00;97996.38;5054969;28;20102;-77
2021/08/09 04:36:11;;;;;;;2.78;1.27;;;;;;;13.08;100.00;97994.13;5053918;28;20051;-78
2021/08/09 04:38:38;;;;;;;8.15;1.90;;;;;;;13.10;100.00;97991.91;5053366;28;20048;-77
2021/08/09 04:41:08;;;;;;;7.55;1.90;;;;;;;13.18;100.00;98005.81;5054427;28;20041;-79
2021/08/09 04:43:37;;;;;;;4.82;1.67;;;;;;;13.22;100.00;98002.13;5037193;28;20045;-79
2021/08/09 04:46:05;;;;;;;4.57;1.42;;;;;;;13.27;100.00;98010.09;5054523;28;20516;-78
2021/08/09 04:48:33;;;;;;;5.45;1.40;;;;;;;13.35;100.00;98003.84;5053180;28;20098;-78
2021/08/09 04:51:00;;;;;;;6.35;1.60;;;;;;;13.42;100.00;98006.88;5053501;28;20349;-78
2021/08/09 04:53:26;;;;;;;3.13;1.23;;;;;;;13.59;100.00;98004.13;5069339;28;20045;-79
2021/08/09 04:55:53;;;;;;;6.00;1.50;;;;;;;13.67;100.00;98011.47;5054027;28;20127;-79
2021/08/09 04:58:20;;;;;;;5.13;1.88;;;;;;;13.80;100.00;98011.56;5055056;28;20044;-82
2021/08/09 05:00:46;;;;;;;6.05;1.77;;;;;;;13.94;100.00;98012.13;5054673;28;20094;-79
2021/08/09 05:03:13;;;;;;;8.93;1.77;;;;;;;14.06;100.00;98014.97;5055654;28;20107;-81
2021/08/09 05:05:44;;;;;;;4.50;1.40;;;;;;;14.24;100.00;98016.47;5055733;28;20059;-82
2021/08/09 05:08:11;;;;;;;4.47;1.60;;;;;;;14.36;100.00;98011.16;5044204;28;20055;-81
2021/08/09 05:10:40;;;;;;;5.10;1.50;;;;;;;14.58;100.00;98013.56;5058500;28;20056;-80
2021/08/09 05:13:07;;;;;;;4.47;1.20;;;;;;;14.79;100.00;98021.72;5045680;28;20046;-80
2021/08/09 05:15:36;;;;;;;3.35;1.50;;;;;;;15.03;100.00;98013.69;5065766;28;20044;-80
2021/08/09 05:18:03;;;;;;;3.50;1.50;;;;;;;15.29;100.00;98027.09;5063212;28;20506;-81
2021/08/09 05:20:30;;;;;;;6.18;1.58;;;;;;;15.48;100.00;98011.84;5051433;28;20049;-80
2021/08/09 05:22:57;;;;;;;4.35;1.35;;;;;;;15.66;100.00;98015.19;5058203;28;20051;-82
2021/08/09 05:25:23;;;;;;;4.70;1.20;;;;;;;15.91;100.00;98021.47;5071882;28;20461;-81
2021/08/09 05:27:50;;;;;;;4.47;1.30;;;;;;;16.09;100.00;98014.66;5072670;28;20083;-82
2021/08/09 05:30:18;;;;;;;3.35;1.15;;;;;;;16.17;100.00;98016.47;5056351;28;20049;-82
2021/08/09 05:32:45;;;;;;;2.88;1.10;;;;;;;16.30;100.00;98023.53;5040258;28;20509;-82
2021/08/09 05:35:12;;;;;;;5.45;1.23;;;;;;;16.41;100.00;98024.66;5072893;28;20056;-81
2021/08/09 05:37:40;;;;;;;6.60;1.30;;;;;;;16.55;100.00;98036.06;5072615;28;20430;-81
2021/08/09 05:40:08;;;;;;;4.22;1.08;;;;;;;16.53;100.00;98027.41;5071970;28;20064;-81
2021/08/09 05:42:35;;;;;;;5.03;1.15;;;;;;;16.54;100.00;98033.69;5070754;28;20047;-80
2021/08/09 05:45:01;;;;;;;5.50;1.33;;;;;;;16.66;100.00;98037.19;5072186;28;20506;-82
2021/08/09 05:47:28;;;;;;;3.22;1.08;;;;;;;16.63;100.00;98046.06;5073122;28;20048;-79
2021/08/09 05:49:57;;;;;;;5.45;1.05;;;;;;;16.61;100.00;98029.22;5087869;28;20429;-81
2021/08/09 05:52:26;;;;;;;4.30;1.10;;;;;;;16.62;100.00;98028.06;5072266;28;20048;-81
2021/08/09 05:54:53;;;;;;;4.93;1.23;;;;;;;16.59;100.00;98036.97;5072035;28;20052;-80
2021/08/09 05:57:20;;;;;;;5.20;1.27;;;;;;;16.54;100.00;98028.22;5072561;28;20044;-82
2021/08/09 05:59:47;;;;;;;3.03;1.25;;;;;;;16.55;100.00;98025.13;5071029;28;20056;-81
2021/08/09 06:02:14;;;;;;;4.65;1.27;;;;;;;16.60;100.00;98030.34;5063109;28;20102;-82
2021/08/09 06:04:41;;;;;;;3.60;1.17;;;;;;;16.70;100.00;98040.00;5071754;28;20164;-83
2021/08/09 06:07:16;;;;;;;2.78;0.95;;;;;;;16.69;100.00;98036.50;5053357;28;20046;-82
2021/08/09 06:09:44;;;;;;;4.07;1.10;;;;;;;16.83;100.00;98035.34;5049465;28;20048;-82
2021/08/09 06:12:11;;;;;;;3.15;1.20;;;;;;;16.89;100.00;98023.81;5062245;28;20056;-81
2021/08/09 06:14:38;;;;;;;4.05;1.05;;;;;;;16.95;100.00;98030.63;5044743;28;20045;-81
2021/08/09 06:17:07;;;;;;;4.78;1.00;;;;;;;16.89;100.00;98034.75;5048463;28;20045;-83
2021/08/09 06:19:35;;;;;;;4.18;1.10;;;;;;;16.93;100.00;98043.06;5059445;28;20052;-82
2021/08/09 06:22:03;;;;;;;4.68;1.17;;;;;;;16.85;100.00;98039.31;5054612;28;20465;-82
2021/08/09 06:24:30;;;;;;;4.53;1.23;;;;;;;16.83;100.00;98038.06;5065994;23;21101;-85
2021/08/09 06:26:57;;;;;;;2.80;1.00;;;;;;;16.93;100.00;98027.41;5052456;28;20041;-85
2021/08/09 06:29:23;;;;;;;4.50;1.20;;;;;;;17.11;100.00;98022.50;5053911;28;20045;-86
2021/08/09 06:31:50;;;;;;;2.25;1.05;;;;;;;17.10;100.00;98027.16;5037761;28;20091;-84
2021/08/09 06:34:17;;;;;;;3.20;1.20;;;;;;;17.26;100.00;98033.50;5046174;23;20044;-80
2021/08/09 06:36:47;;;;;;;3.67;1.17;;;;;;;17.12;100.00;98021.31;5012316;28;20042;-80
2021/08/09 06:39:19;;;;;;;4.53;1.13;;;;;;;17.20;100.00;98018.44;5012492;28;20034;-79
2021/08/09 06:41:49;;;;;;;3.53;1.08;;;;;;;17.36;100.00;98026.72;5011218;28;20277;-80
2021/08/09 06:44:16;;;;;;;2.63;1.02;;;;;;;17.36;100.00;98013.03;5026875;28;20133;-80
2021/08/09 06:46:42;;;;;;;4.25;1.20;;;;;;;17.56;100.00;98027.66;5011619;28;20045;-80
2021/08/09 06:49:11;;;;;;;3.75;1.20;;;;;;;17.55;100.00;98026.84;5012829;28;20049;-79
2021/08/09 06:51:38;;;;;;;3.20;1.10;;;;;;;17.53;100.00;98022.88;4996853;28;20629;-80
2021/08/09 06:54:04;;;;;;;4.15;1.30;;;;;;;17.58;100.00;98028.91;4980361;28;20042;-81
2021/08/09 06:56:31;;;;;;;3.75;1.08;;;;;;;17.49;100.00;98036.47;4993628;28;20435;-80
2021/08/09 06:58:58;;;;;;;4.13;1.23;;;;;;;17.43;100.00;98038.66;4994222;28;20049;-80
2021/08/09 07:01:24;;;;;;;2.38;1.30;;;;;;;17.50;100.00;98045.47;5010650;28;20046;-79
2021/08/09 07:03:51;;;;;;;3.78;1.27;;;;;;;17.65;100.00;98033.78;4977350;28;20042;-79
2021/08/09 07:06:21;;;;;;;5.55;1.27;;;;;;;17.72;100.00;98033.97;4992893;28;20046;-79
2021/08/09 07:08:51;;;;;;;3.83;1.30;;;;;;;17.90;100.00;98029.75;5011344;28;20049;-80
2021/08/09 07:11:18;;;;;;;3.20;1.10;;;;;;;17.98;100.00;98026.03;5010842;28;20068;-79
2021/08/09 07:13:45;;;;;;;3.20;1.35;;;;;;;18.41;100.00;98027.84;5010447;28;20441;-79
2021/08/09 07:16:12;;;;;;;4.22;1.35;;;;;;;18.60;100.00;98033.44;5022041;28;20053;-79
2021/08/09 07:18:38;;;;;;;4.40;1.30;;;;;;;18.26;100.00;98021.25;5030263;28;20046;-79
2021/08/09 07:21:12;;;;;;;4.88;1.40;;;;;;;18.56;100.00;98036.09;5005409;28;20049;-80
2021/08/09 07:23:39;;;;;;;2.67;1.20;;;;;;;18.52;100.00;98034.41;4992405;28;20042;-80
2021/08/09 07:26:06;;;;;;;4.38;1.45;;;;;;;18.47;100.00;98038.22;5009931;28;20041;-80
2021/08/09 07:28:35;;;;;;;2.92;1.10;;;;;;;18.80;100.00;98023.28;5010890;28;20046;-80
2021/08/09 07:31:02;;;;;;;2.38;1.00;;;;;;;18.80;100.00;98031.50;4992120;28;20050;-81
2021/08/09 07:33:29;;;;;;;3.65;1.20;;;;;;;18.81;100.00;98019.41;4993089;28;20097;-80
2021/08/09 07:35:56;;;;;;;3.35;1.25;;;;;;;18.82;100.00;98018.22;5010479;28;20312;-78
2021/08/09 07:38:24;;;;;;;4.28;1.30;;;;;;;18.67;100.00;98017.13;4997874;28;20095;-80
2021/08/09 07:40:50;;;;;;;3.58;1.00;;;;;;;18.89;100.00;98021.91;5011810;28;20541;-80
2021/08/09 07:43:17;;;;;;;3.28;1.05;;;;;;;19.27;100.00;98029.38;5011868;28;20565;-79
2021/08/09 07:45:44;;;;;;;5.75;1.42;;;;;;;19.79;100.00;98035.13;5029675;28;20136;-79
2021/08/09 07:48:14;;;;;;;5.20;1.30;;;;;;;20.27;100.00;98047.38;5029563;28;20061;-79
2021/08/09 07:50:42;;;;;;;5.95;1.10;;;;;;;20.03;100.00;98047.69;5029718;28;20045;-81
2021/08/09 07:53:09;;;;;;;4.75;1.33;;;;;;;20.01;100.00;98043.72;4984772;28;20046;-79
2021/08/09 07:55:35;;;;;;;2.92;1.15;;;;;;;19.73;100.00;98036.59;4992245;28;20066;-80
2021/08/09 07:58:02;;;;;;;6.85;1.33;;;;;;;19.62;100.00;98046.56;5012079;28;20053;-80
2021/08/09 08:00:29;;;;;;;5.38;1.23;;;;;;;19.56;100.00;98045.28;5011380;28;20471;-80
2021/08/09 08:02:56;;;;;;;5.00;1.15;;;;;;;19.81;100.00;98054.78;5014697;28;20399;-80
2021/08/09 08:05:22;;;;;;;4.30;1.40;;;;;;;19.94;100.00;98044.41;5015824;28;20152;-78
2021/08/09 08:07:49;;;;;;;2.30;1.05;;;;;;;19.91;100.00;98045.16;5014910;28;20096;-82
2021/08/09 08:10:16;;;;;;;4.10;0.90;;;;;;;20.21;100.00;98045.25;4998099;28;20054;-81
2021/08/09 08:12:42;;;;;;;3.08;1.17;;;;;;;20.16;100.00;98048.31;5016845;28;20045;-81
2021/08/09 08:15:11;;;;;;;4.00;1.27;;;;;;;20.28;100.00;98040.72;5001347;28;20050;-81
2021/08/09 08:17:37;;;;;;;3.45;1.20;;;;;;;20.40;100.00;98056.22;5014071;28;20492;-79
2021/08/09 08:20:05;;;;;;;2.00;1.10;;;;;;;20.18;100.00;98055.03;5012598;28;20573;-80
2021/08/09 08:22:31;;;;;;;3.85;1.17;;;;;;;20.33;100.00;98050.59;5009427;28;20045;-79
2021/08/09 08:24:58;;;;;;;5.68;1.27;;;;;;;20.50;100.00;98050.88;4999878;28;20065;-79
2021/08/09 08:27:25;;;;;;;2.95;1.20;;;;;;;20.40;100.00;98053.47;5028523;28;20057;-81
2021/08/09 08:29:52;;;;;;;6.45;1.20;;;;;;;20.38;100.00;98051.09;4994653;28;20057;-80
2021/08/09 08:32:21;;;;;;;5.25;1.30;;;;;;;20.32;100.00;98044.31;5028239;28;20456;-81
2021/08/09 08:34:51;;;;;;;3.67;1.30;;;;;;;20.36;100.00;98049.88;4980289;28;20061;-82
2021/08/09 08:37:19;;;;;;;4.50;1.17;;;;;;;20.33;100.00;98056.91;5015035;28;20053;-82
2021/08/09 08:39:45;;;;;;;2.35;1.08;;;;;;;20.16;100.00;98046.34;4995315;28;20053;-85
2021/08/09 08:42:15;;;;;;;4.53;1.10;;;;;;;20.41;100.00;98052.31;5012633;28;20049;-82
2021/08/09 08:44:43;;;;;;;4.93;1.15;;;;;;;20.37;100.00;98045.94;4996651;28;20046;-80
2021/08/09 08:47:19;;;;;;;6.25;1.40;;;;;;;20.38;100.00;98048.34;5013522;28;20545;-83
2021/08/09 08:49:47;;;;;;;3.05;1.25;;;;;;;20.55;100.00;98052.53;4995897;28;20100;-82
2021/08/09 08:52:15;;;;;;;6.18;1.63;;;;;;;20.94;100.00;98061.34;5028917;28;20545;-81
2021/08/09 08:54:42;;;;;;;3.80;1.25;;;;;;;21.15;100.00;98055.38;5019562;28;20049;-80
2021/08/09 08:57:24;;;;;;;4.75;1.13;;;;;;;21.24;100.00;98055.88;4980562;28;20050;-81
2021/08/09 08:59:51;;;;;;;3.05;1.10;;;;;;;21.22;100.00;98052.69;5013748;28;20054;-80
2021/08/09 09:02:35;;;;;;;4.13;1.38;;;;;;;21.09;100.00;98057.66;4996132;28;20071;-82
2021/08/09 09:05:18;;;;;;;4.32;1.35;;;;;;;20.76;100.00;98057.53;5009606;28;20519;-80
2021/08/09 09:07:52;;;;;;;2.53;1.00;;;;;;;20.59;100.00;98056.13;4993871;28;20085;-79
2021/08/09 09:10:22;;;;;;;4.50;1.20;;;;;;;20.52;100.00;98049.72;4977107;28;20047;-82
2021/08/09 09:13:08;;;;;;;3.92;1.23;;;;;;;20.68;100.00;98055.84;4993315;28;20066;-82
2021/08/09 09:15:59;;;;;;;4.43;1.30;;;;;;;20.92;100.00;98042.47;4962020;28;20046;-83
2021/08/09 09:18:42;;;;;;;6.60;1.13;;;;;;;21.39;100.00;98041.13;4995331;28;20050;-81
2021/08/09 09:21:33;;;;;;;4.85;1.27;;;;;;;21.43;100.00;98036.44;4978623;28;20234;-81
2021/08/09 09:24:13;;;;;;;4.97;1.20;;;;;;;21.84;100.00;98040.81;4979717;28;20038;-82
2021/08/09 09:26:42;;;;;;;2.25;1.00;;;;;;;22.06;100.00;98039.91;5001578;28;20042;-81
2021/08/09 09:29:14;;;;;;;3.42;1.17;;;;;;;22.00;100.00;98046.91;5024547;28;20103;-82
2021/08/09 09:31:45;;;;;;;5.13;1.13;;;;;;;22.23;100.00;98036.50;5002339;28;20416;-82
2021/08/09 09:34:18;;;;;;;3.92;1.20;;;;;;;21.87;100.00;98037.34;5034716;28;20492;-80
2021/08/09 09:36:52;;;;;;;3.45;1.30;;;;;;;21.94;100.00;98047.66;5033206;28;20049;-80
2021/08/09 09:39:33;;;;;;;4.72;1.30;;;;;;;22.02;100.00;98046.53;5015989;28;20056;-80
2021/08/09 09:42:06;;;;;;;4.05;1.25;;;;;;;22.43;100.00;98047.31;5015640;28;20107;-82
2021/08/09 09:44:35;;;;;;;3.42;1.10;;;;;;;22.81;100.00;98049.56;5017461;28;20064;-82
2021/08/09 09:47:21;;;;;;;5.68;1.20;;;;;;;22.93;100.00;98046.47;5033309;28;20080;-81
2021/08/09 09:49:53;;;;;;;4.63;1.10;;;;;;;23.56;100.00;98046.00;5016254;28;20057;-82
2021/08/09 09:52:29;;;;;;;3.15;1.00;;;;;;;23.59;94.77;98050.75;5016493;28;20038;-81
2021/08/09 09:55:00;;;;;;;1.98;0.90;;;;;;;24.00;92.26;98059.56;5016239;28;20053;-82
2021/08/09 09:57:30;;;;;;;4.35;1.00;;;;;;;24.52;71.87;98041.44;5016173;28;20053;-82
2021/08/09 09:59:59;;;;;;;7.68;1.30;;;;;;;24.05;65.44;98032.28;4996957;28;20053;-81
2021/08/09 10:02:29;;;;;;;4.57;1.00;;;;;;;23.50;68.73;98036.50;5032303;28;20041;-81
2021/08/09 10:05:08;;;;;;;3.65;0.95;;;;;;;24.77;61.67;98028.34;5013807;28;20053;-81
2021/08/09 10:07:48;;;;;;;3.17;1.02;;;;;;;24.88;56.88;98042.19;5014549;28;20053;-82
2021/08/09 10:10:41;;;;;;;3.67;0.90;;;;;;;24.08;64.43;98025.97;5032604;28;20049;-80
2021/08/09 10:13:20;;;;;;;4.25;1.00;;;;;;;23.83;76.38;98022.38;5032135;28;20049;-81
2021/08/09 10:16:16;;;;;;;4.07;0.90;;;;;;;23.17;67.85;98051.34;5007061;28;20538;-81
2021/08/09 10:18:52;;;;;;;5.82;1.10;;;;;;;23.61;70.56;98023.53;4996311;28;20041;-80
2021/08/09 10:21:31;;;;;;;2.30;0.70;;;;;;;25.24;59.14;98021.50;5027278;28;20152;-81
2021/08/09 10:24:01;;;;;;;;;;;;;;;25.28;54.17;98044.44;4994712;28;20044;-80
2021/08/09 10:26:31;;;;;;;3.40;0.80;;;;;;;24.68;57.48;98039.81;4979286;28;19921;-80
2021/08/09 10:29:14;;;;;;;4.85;1.20;;;;;;;23.23;66.88;98032.44;5027461;28;20080;-80
2021/08/09 10:31:50;;;;;;;2.15;0.68;;;;;;;23.87;59.10;98025.94;5009621;28;20149;-81
2021/08/09 10:34:39;;;;;;;2.67;0.95;;;;;;;25.64;55.88;98031.22;4997901;28;20034;-82
2021/08/09 10:37:27;;;;;;;3.40;0.82;;;;;;;26.72;49.12;98023.28;4997152;28;20041;-81
2021/08/09 10:40:51;;;;;;;3.35;0.90;;;;;;;26.05;52.73;98012.72;4994376;28;20093;-82
2021/08/09 10:43:18;;;;;;;2.10;0.80;;;;;;;28.08;46.64;98032.41;5031506;28;20152;-82
2021/08/09 10:45:48;;;;;;;3.05;1.17;;;;;;;27.36;45.07;98020.63;5011392;28;20069;-82
2021/08/09 10:48:50;;;;;;;1.92;0.80;;;;;;;26.56;49.06;98045.25;5009058;28;20046;-83
2021/08/09 10:51:16;;;;;;;3.28;1.00;;;;;;;27.37;47.94;98035.31;5024675;28;20136;-82
2021/08/09 10:53:47;;;;;;;1.35;0.70;;;;;;;27.28;47.25;98046.94;5012405;28;20050;-84
2021/08/09 10:56:43;;;;;;;3.08;1.02;;;;;;;27.34;46.62;98028.59;4994473;28;20454;-82
2021/08/09 10:59:45;;;;;;;2.60;0.80;;;;;;;25.82;51.01;98041.03;4992655;28;20146;-81
2021/08/09 11:02:26;;;;;;;4.90;0.90;;;;;;;27.89;47.86;98033.06;4978650;28;20736;-83
2021/08/09 11:05:12;;;;;;;5.20;0.90;;;;;;;27.55;44.66;98028.34;5005359;28;21068;-81
2021/08/09 11:07:39;;;;;;;2.95;1.02;;;;;;;28.82;40.86;98026.41;5032150;28;20495;-83
2021/08/09 11:10:07;;;;;;;1.70;1.00;;;;;;;29.08;38.05;98033.09;5032840;28;20045;-82
2021/08/09 11:12:53;;;;;;;3.13;1.10;;;;;;;29.42;36.28;98030.81;5015266;28;20060;-81
2021/08/09 11:15:20;;;;;;;2.45;1.02;;;;;;;28.05;39.87;98022.13;5014367;28;20045;-81
2021/08/09 11:17:50;;;;;;;4.63;1.13;;;;;;;26.94;41.86;98035.81;5034210;28;20049;-80
2021/08/09 11:20:29;;;;;;;4.75;1.08;;;;;;;26.33;46.15;98034.75;5014977;28;20543;-81
2021/08/09 11:23:11;;;;;;;3.03;1.20;;;;;;;26.36;48.01;98045.03;5014388;28;20050;-81
2021/08/09 11:25:48;;;;;;;1.42;0.90;;;;;;;26.45;47.13;98050.16;5014175;28;20041;-80
2021/08/09 11:28:16;;;;;;;2.88;1.00;;;;;;;25.39;46.10;98042.41;5014786;28;20136;-80
2021/08/09 11:30:47;;;;;;;4.35;1.10;;;;;;;25.31;48.01;98038.09;5031995;28;20057;-80
2021/08/09 11:33:36;;;;;;;4.70;0.93;;;;;;;27.30;47.96;98032.63;5013204;28;20045;-81
2021/08/09 11:36:09;;;;;;;1.70;0.68;;;;;;;25.24;47.34;98032.59;5034041;28;20096;-81
2021/08/09 11:39:01;;;;;;;5.22;1.00;;;;;;;25.38;53.11;98038.84;5033760;28;20076;-82
2021/08/09 11:41:30;;;;;;;4.55;0.90;;;;;;;26.82;44.62;98032.75;5031707;28;20037;-81
2021/08/09 11:43:57;;;;;;;4.10;1.23;;;;;;;27.93;40.83;98045.72;5016791;28;20048;-81